createdAt,value
2023-03-08T00:01:15.991Z,0.14
2023-03-08T00:03:42.554Z,0.09
2023-03-08T00:06:12.553Z,0.21
2023-03-08T00:08:39.260Z,0.12
2023-03-08T00:11:07.117Z,0.16
2023-03-08T00:13:33.526Z,0.11
2023-03-08T00:16:01.730Z,0.17
2023-03-08T00:18:28.182Z,0.15
2023-03-08T00:21:09.701Z,0.19
2023-03-08T00:23:36.235Z,0.12
2023-03-08T00:26:03.029Z,0.11
2023-03-08T00:28:30.120Z,0.09
2023-03-08T00:30:57.658Z,0.14
2023-03-08T00:33:24.112Z,0.15
2023-03-08T00:35:58.344Z,0.05
2023-03-08T00:38:25.480Z,0.04
2023-03-08T00:40:52.646Z,-0.04
2023-03-08T00:43:19.285Z,-0.05
2023-03-08T00:45:45.697Z,0.02
2023-03-08T00:48:12.488Z,0.03
2023-03-08T00:50:39.026Z,0.01
2023-03-08T00:53:05.691Z,-0.01
2023-03-08T00:55:32.097Z,-0.06
2023-03-08T00:57:58.686Z,-0.08
2023-03-08T01:00:25.132Z,-0.06
2023-03-08T01:02:51.564Z,-0.05
2023-03-08T01:05:17.895Z,-0.06
2023-03-08T01:07:44.237Z,-0.09
2023-03-08T01:10:11.393Z,-0.07
2023-03-08T01:12:38.372Z,-0.09
2023-03-08T01:15:05.858Z,-0.12
2023-03-08T01:17:32.563Z,-0.17
2023-03-08T01:19:58.920Z,-0.08
2023-03-08T01:22:25.297Z,-0.14
2023-03-08T01:24:51.673Z,-0.09
2023-03-08T01:27:18.018Z,-0.10
2023-03-08T01:29:44.630Z,-0.14
2023-03-08T01:32:11.365Z,-0.16
2023-03-08T01:34:38.499Z,-0.14
2023-03-08T01:37:05.795Z,-0.17
2023-03-08T01:39:32.401Z,-0.13
2023-03-08T01:41:58.765Z,-0.02
2023-03-08T01:44:25.096Z,0.20
2023-03-08T01:46:52.679Z,0.11
2023-03-08T01:49:22.665Z,-0.03
2023-03-08T01:51:54.563Z,0.04
2023-03-08T01:54:26.412Z,-0.02
2023-03-08T01:56:58.106Z,0.02
2023-03-08T01:59:24.529Z,0.01
2023-03-08T02:01:51.017Z,0.01
2023-03-08T02:04:17.375Z,-0.03
2023-03-08T02:06:44.820Z,0.04
2023-03-08T02:09:12.008Z,0.04
2023-03-08T02:11:41.685Z,0.01
2023-03-08T02:14:08.114Z,0.02
2023-03-08T02:16:34.624Z,0.06
2023-03-08T02:19:04.958Z,0.08
2023-03-08T02:21:32.428Z,0.02
2023-03-08T02:24:28.216Z,0.03
2023-03-08T02:27:08.060Z,-0.04
2023-03-08T02:29:34.419Z,0.01
2023-03-08T02:32:00.793Z,0.01
2023-03-08T02:34:27.146Z,0.08
2023-03-08T02:36:53.510Z,0.08
2023-03-08T02:39:19.857Z,0.06
2023-03-08T02:41:46.252Z,0.15
2023-03-08T02:44:12.689Z,0.09
2023-03-08T02:46:39.136Z,0.13
2023-03-08T02:49:05.486Z,0.15
2023-03-08T02:51:31.833Z,0.09
2023-03-08T02:53:58.292Z,0.20
2023-03-08T02:56:24.792Z,0.10
2023-03-08T02:58:51.434Z,0.14
2023-03-08T03:01:17.856Z,0.11
2023-03-08T03:03:44.353Z,0.08
2023-03-08T03:06:19.539Z,0.10
2023-03-08T03:08:46.116Z,0.15
2023-03-08T03:11:18.115Z,0.15
2023-03-08T03:13:44.838Z,0.04
2023-03-08T03:16:14.158Z,0.08
2023-03-08T03:18:41.284Z,0.11
2023-03-08T03:21:10.638Z,0.11
2023-03-08T03:23:37.497Z,0.08
2023-03-08T03:26:06.450Z,0.10
2023-03-08T03:28:32.776Z,0.06
2023-03-08T03:30:59.222Z,0.13
2023-03-08T03:33:25.786Z,0.12
2023-03-08T03:35:52.125Z,0.17
2023-03-08T03:38:18.537Z,0.14
2023-03-08T03:40:44.922Z,0.11
2023-03-08T03:43:11.298Z,0.18
2023-03-08T03:45:37.673Z,0.21
2023-03-08T03:48:04.075Z,0.25
2023-03-08T03:50:30.450Z,0.30
2023-03-08T03:52:56.810Z,0.30
2023-03-08T03:55:23.139Z,0.29
2023-03-08T03:57:50.670Z,0.25
2023-03-08T04:00:17.505Z,0.23
2023-03-08T04:02:43.927Z,0.21
2023-03-08T04:05:10.302Z,0.26
2023-03-08T04:07:36.696Z,0.25
2023-03-08T04:10:03.106Z,0.32
2023-03-08T04:12:29.479Z,0.30
2023-03-08T04:14:55.851Z,0.30
2023-03-08T04:17:22.205Z,0.30
2023-03-08T04:19:50.242Z,0.27
2023-03-08T04:22:16.705Z,0.31
2023-03-08T04:24:43.359Z,0.31
2023-03-08T04:27:09.867Z,0.36
2023-03-08T04:29:36.313Z,0.35
2023-03-08T04:32:02.813Z,0.33
2023-03-08T04:34:29.145Z,0.31
2023-03-08T04:36:55.506Z,0.37
2023-03-08T04:39:21.899Z,0.36
2023-03-08T04:41:48.248Z,0.36
2023-03-08T04:44:14.615Z,0.43
2023-03-08T04:46:41.137Z,0.39
2023-03-08T04:49:07.558Z,0.40
2023-03-08T04:51:33.916Z,0.35
2023-03-08T04:54:00.265Z,0.32
2023-03-08T04:56:26.755Z,0.43
2023-03-08T04:58:53.185Z,0.37
2023-03-08T05:01:22.888Z,0.36
2023-03-08T05:03:49.720Z,0.37
2023-03-08T05:06:16.837Z,0.42
2023-03-08T05:08:43.944Z,0.40
2023-03-08T05:11:11.672Z,0.47
2023-03-08T05:13:38.946Z,0.43
2023-03-08T05:16:07.709Z,0.45
2023-03-08T05:18:34.372Z,0.43
2023-03-08T05:21:07.011Z,0.42
2023-03-08T05:23:34.185Z,0.43
2023-03-08T05:26:02.113Z,0.47
2023-03-08T05:28:31.568Z,0.46
2023-03-08T05:31:09.179Z,0.39
2023-03-08T05:33:36.459Z,0.42
2023-03-08T05:36:03.517Z,0.32
2023-03-08T05:38:30.412Z,0.44
2023-03-08T05:41:00.874Z,0.31
2023-03-08T05:43:27.687Z,0.34
2023-03-08T05:45:56.850Z,0.38
2023-03-08T05:48:23.884Z,0.49
2023-03-08T05:50:50.314Z,0.39
2023-03-08T05:53:16.697Z,0.35
2023-03-08T05:55:44.297Z,0.33
2023-03-08T05:58:10.825Z,0.37
2023-03-08T06:00:37.207Z,0.56
2023-03-08T06:03:03.980Z,0.50
2023-03-08T06:05:31.689Z,0.42
2023-03-08T06:07:58.709Z,0.45
2023-03-08T06:10:25.122Z,0.65
2023-03-08T06:12:51.811Z,0.56
2023-03-08T06:15:18.243Z,0.54
2023-03-08T06:17:44.640Z,0.55
2023-03-08T06:20:11.354Z,0.54
2023-03-08T06:22:37.848Z,0.53
2023-03-08T06:25:04.535Z,0.50
2023-03-08T06:27:30.920Z,0.53
2023-03-08T06:29:57.345Z,0.47
2023-03-08T06:32:23.776Z,0.50
2023-03-08T06:34:50.178Z,0.37
2023-03-08T06:37:16.731Z,0.42
2023-03-08T06:39:43.106Z,0.76
2023-03-08T06:42:09.527Z,0.69
2023-03-08T06:44:36.310Z,0.68
2023-03-08T06:47:03.336Z,0.70
2023-03-08T06:49:29.704Z,0.75
2023-03-08T06:51:56.053Z,0.73
2023-03-08T06:54:24.178Z,0.73
2023-03-08T06:56:50.885Z,1.04
2023-03-08T06:59:17.512Z,1.23
2023-03-08T07:01:43.981Z,1.29
2023-03-08T07:04:10.455Z,1.20
2023-03-08T07:06:36.993Z,1.23
2023-03-08T07:09:04.654Z,1.26
2023-03-08T07:11:32.210Z,1.26
2023-03-08T07:13:59.337Z,1.26
2023-03-08T07:16:25.704Z,1.21
2023-03-08T07:18:52.147Z,1.16
2023-03-08T07:21:18.648Z,1.21
2023-03-08T07:23:44.974Z,1.22
2023-03-08T07:26:11.841Z,1.20
2023-03-08T07:28:38.505Z,1.21
2023-03-08T07:31:05.160Z,1.25
2023-03-08T07:33:31.666Z,1.28
2023-03-08T07:36:04.507Z,1.36
2023-03-08T07:38:30.938Z,1.42
2023-03-08T07:40:57.848Z,1.49
2023-03-08T07:43:24.598Z,1.62
2023-03-08T07:45:51.077Z,1.71
2023-03-08T07:48:17.471Z,1.76
2023-03-08T07:50:43.829Z,1.68
2023-03-08T07:53:10.405Z,1.62
2023-03-08T07:55:38.129Z,1.62
2023-03-08T07:58:04.674Z,1.64
2023-03-08T08:00:31.163Z,1.54
2023-03-08T08:02:57.610Z,1.55
2023-03-08T08:05:26.363Z,1.52
2023-03-08T08:07:52.824Z,1.62
2023-03-08T08:10:19.346Z,1.61
2023-03-08T08:12:45.725Z,1.68
2023-03-08T08:15:12.238Z,1.66
2023-03-08T08:17:38.618Z,1.88
2023-03-08T08:20:08.099Z,1.73
2023-03-08T08:22:36.333Z,1.86
2023-03-08T08:25:05.142Z,1.86
2023-03-08T08:27:31.496Z,1.76
2023-03-08T08:29:59.207Z,1.77
2023-03-08T08:32:27.409Z,1.77
2023-03-08T08:34:53.781Z,1.76
2023-03-08T08:37:20.149Z,1.73
2023-03-08T08:39:46.520Z,1.74
2023-03-08T08:42:12.871Z,1.90
2023-03-08T08:44:39.230Z,1.92
2023-03-08T08:47:05.636Z,2.05
2023-03-08T08:49:32.137Z,2.24
2023-03-08T08:51:58.590Z,2.21
2023-03-08T08:54:25.132Z,2.22
2023-03-08T08:56:51.848Z,2.20
2023-03-08T08:59:18.235Z,2.07
2023-03-08T09:01:44.892Z,2.22
2023-03-08T09:04:13.601Z,2.24
2023-03-08T09:06:40.445Z,2.17
2023-03-08T09:09:07.052Z,2.14
2023-03-08T09:11:37.767Z,2.11
2023-03-08T09:14:11.525Z,2.05
2023-03-08T09:16:37.953Z,2.04
2023-03-08T09:19:04.968Z,2.08
2023-03-08T09:21:32.365Z,2.22
2023-03-08T09:24:01.520Z,2.24
2023-03-08T09:26:31.962Z,2.28
2023-03-08T09:29:04.635Z,2.31
2023-03-08T09:31:32.992Z,2.31
2023-03-08T09:34:00.088Z,2.27
2023-03-08T09:36:28.624Z,2.24
2023-03-08T09:38:56.018Z,2.18
2023-03-08T09:41:35.050Z,2.26
2023-03-08T09:44:32.206Z,2.30
2023-03-08T09:47:05.641Z,2.36
2023-03-08T09:49:33.311Z,2.35
2023-03-08T09:52:08.777Z,2.34
2023-03-08T09:54:38.470Z,2.43
2023-03-08T09:57:16.756Z,2.46
2023-03-08T10:00:08.109Z,2.58
2023-03-08T10:02:47.873Z,2.52
2023-03-08T10:05:26.456Z,2.55
2023-03-08T10:07:58.812Z,2.52
2023-03-08T10:10:43.848Z,2.56
2023-03-08T10:13:28.877Z,2.57
2023-03-08T10:16:11.235Z,2.57
2023-03-08T10:18:47.939Z,2.53
2023-03-08T10:21:18.333Z,2.47
2023-03-08T10:24:00.358Z,2.48
2023-03-08T10:26:28.237Z,2.51
2023-03-08T10:28:54.879Z,2.49
2023-03-08T10:31:25.966Z,2.37
2023-03-08T10:34:16.763Z,2.42
2023-03-08T10:37:04.339Z,2.37
2023-03-08T10:39:30.743Z,2.43
2023-03-08T10:46:14.862Z,2.47
2023-03-08T10:48:42.069Z,2.54
2023-03-08T10:51:23.504Z,2.54
2023-03-08T10:54:04.713Z,2.57
2023-03-08T10:56:33.766Z,2.54
2023-03-08T10:59:00.169Z,2.41
2023-03-08T11:01:29.434Z,2.53
2023-03-08T11:04:25.582Z,2.70
2023-03-08T11:06:52.024Z,2.83
2023-03-08T11:09:30.537Z,2.69
2023-03-08T11:11:58.820Z,2.68
2023-03-08T11:14:26.957Z,2.70
2023-03-08T11:17:12.341Z,2.73
2023-03-08T11:19:53.851Z,2.71
2023-03-08T11:22:29.449Z,2.67
2023-03-08T11:25:14.352Z,2.68
2023-03-08T11:28:11.700Z,2.74
2023-03-08T11:30:44.228Z,2.77
2023-03-08T11:33:26.950Z,2.68
2023-03-08T11:36:05.562Z,2.73
2023-03-08T11:38:33.380Z,2.75
2023-03-08T11:41:19.589Z,2.89
2023-03-08T11:44:04.315Z,3.12
2023-03-08T11:46:45.674Z,3.06
2023-03-08T11:49:41.720Z,2.99
2023-03-08T11:52:22.143Z,3.05
2023-03-08T11:55:15.612Z,3.13
2023-03-08T11:57:47.081Z,3.18
2023-03-08T12:00:31.519Z,3.21
2023-03-08T12:03:04.511Z,3.22
2023-03-08T12:05:35.106Z,3.22
2023-03-08T12:08:12.366Z,3.24
2023-03-08T12:10:50.919Z,3.28
2023-03-08T12:13:24.033Z,3.28
2023-03-08T12:16:15.268Z,3.32
2023-03-08T12:19:22.306Z,3.40
2023-03-08T12:22:01.584Z,3.41
2023-03-08T12:24:41.955Z,3.35
2023-03-08T12:27:40.558Z,3.38
2023-03-08T12:30:10.009Z,3.40
2023-03-08T12:32:39.688Z,3.38
2023-03-08T12:35:25.733Z,3.41
2023-03-08T12:38:15.381Z,3.43
2023-03-08T12:40:47.125Z,3.51
2023-03-08T12:43:14.754Z,3.48
2023-03-08T12:45:44.201Z,3.52
2023-03-08T12:48:22.523Z,3.53
2023-03-08T12:51:00.245Z,3.58
2023-03-08T12:53:33.310Z,3.52
2023-03-08T12:56:10.575Z,3.58
2023-03-08T12:58:40.311Z,3.49
2023-03-08T13:01:08.292Z,3.48
2023-03-08T13:03:41.885Z,3.58
2023-03-08T13:06:23.593Z,3.55
2023-03-08T13:09:15.602Z,3.60
2023-03-08T13:11:48.062Z,3.72
2023-03-08T13:14:37.903Z,3.74
2023-03-08T13:17:36.335Z,3.82
2023-03-08T13:20:38.901Z,3.79
2023-03-08T13:23:10.820Z,3.93
2023-03-08T13:26:01.126Z,3.88
2023-03-08T13:28:46.680Z,3.89
2023-03-08T13:31:18.475Z,3.87
2023-03-08T13:33:50.985Z,3.98
2023-03-08T13:36:19.272Z,3.93
2023-03-08T13:38:56.277Z,3.94
2023-03-08T13:41:39.836Z,3.93
2023-03-08T13:44:13.888Z,3.95
2023-03-08T13:46:42.832Z,3.98
2023-03-08T13:49:18.121Z,3.97
2023-03-08T13:51:48.081Z,3.99
2023-03-08T13:54:29.232Z,4.05
2023-03-08T13:56:58.060Z,4.04
2023-03-08T13:59:24.513Z,4.04
2023-03-08T14:01:52.543Z,4.07
2023-03-08T14:04:27.717Z,4.10
2023-03-08T14:06:56.606Z,4.00
2023-03-08T14:09:23.549Z,4.03
2023-03-08T14:12:06.598Z,4.03
2023-03-08T14:14:37.356Z,3.98
2023-03-08T14:17:04.786Z,3.91
2023-03-08T14:19:35.271Z,3.93
2023-03-08T14:22:04.556Z,4.00
2023-03-08T14:24:33.986Z,3.94
2023-03-08T14:27:03.527Z,3.91
2023-03-08T14:29:32.604Z,3.81
2023-03-08T14:32:26.724Z,3.82
2023-03-08T14:35:16.186Z,3.82
2023-03-08T14:37:45.432Z,3.86
2023-03-08T14:40:21.093Z,3.85
2023-03-08T14:42:51.340Z,3.88
2023-03-08T14:45:20.597Z,3.85
2023-03-08T14:47:58.058Z,3.93
2023-03-08T14:50:32.878Z,3.82
2023-03-08T14:53:01.606Z,3.80
2023-03-08T14:55:33.435Z,3.88
2023-03-08T14:58:03.343Z,3.82
2023-03-08T15:00:31.222Z,3.80
2023-03-08T15:02:59.057Z,3.78
2023-03-08T15:05:29.442Z,3.81
2023-03-08T15:07:59.301Z,3.74
2023-03-08T15:10:30.452Z,3.76
2023-03-08T15:12:57.650Z,3.71
2023-03-08T15:15:24.317Z,3.71
2023-03-08T15:17:50.888Z,3.63
2023-03-08T15:20:17.937Z,3.65
2023-03-08T15:22:50.450Z,3.65
2023-03-08T15:25:22.858Z,3.63
2023-03-08T15:27:49.901Z,3.55
2023-03-08T15:30:23.074Z,3.53
2023-03-08T15:32:49.991Z,3.53
2023-03-08T15:35:16.953Z,3.48
2023-03-08T15:37:44.492Z,3.49
2023-03-08T15:40:22.674Z,3.48
2023-03-08T15:42:49.016Z,3.42
2023-03-08T15:45:15.545Z,3.38
2023-03-08T15:47:42.577Z,3.35
2023-03-08T15:50:17.969Z,3.35
2023-03-08T15:52:45.367Z,3.33
2023-03-08T15:55:13.497Z,3.31
2023-03-08T15:57:40.284Z,3.30
2023-03-08T16:00:09.490Z,3.39
2023-03-08T16:02:37.346Z,3.34
2023-03-08T16:05:05.518Z,3.29
2023-03-08T16:07:32.073Z,3.27
2023-03-08T16:09:58.459Z,3.30
2023-03-08T16:12:24.848Z,3.37
2023-03-08T16:14:51.752Z,3.44
2023-03-08T16:17:18.363Z,3.38
2023-03-08T16:19:44.800Z,3.30
2023-03-08T16:22:11.541Z,3.28
2023-03-08T16:24:37.954Z,3.23
2023-03-08T16:27:04.494Z,3.19
2023-03-08T16:29:32.444Z,3.19
2023-03-08T16:31:59.394Z,3.19
2023-03-08T16:34:26.784Z,3.16
2023-03-08T16:36:53.991Z,3.14
2023-03-08T16:39:20.975Z,3.15
2023-03-08T16:41:47.887Z,3.16
2023-03-08T16:44:21.948Z,3.17
2023-03-08T16:46:48.871Z,3.15
2023-03-08T16:49:16.535Z,3.14
2023-03-08T16:51:43.211Z,3.15
2023-03-08T16:54:11.392Z,3.11
2023-03-08T16:56:38.201Z,3.09
2023-03-08T16:59:04.988Z,3.08
2023-03-08T17:01:31.599Z,3.05
2023-03-08T17:03:58.869Z,3.05
2023-03-08T17:06:28.622Z,3.03
2023-03-08T17:08:54.966Z,3.02
2023-03-08T17:11:25.659Z,3.09
2023-03-08T17:13:55.392Z,3.09
2023-03-08T17:16:23.581Z,3.08
2023-03-08T17:18:50.659Z,3.04
2023-03-08T17:21:17.714Z,3.02
2023-03-08T17:23:44.673Z,3.01
2023-03-08T17:26:13.039Z,3.01
2023-03-08T17:28:40.115Z,3.03
2023-03-08T17:31:11.883Z,3.01
2023-03-08T17:33:38.643Z,2.96
2023-03-08T17:36:06.520Z,2.97
2023-03-08T17:38:33.718Z,2.93
2023-03-08T17:41:03.948Z,2.93
2023-03-08T17:43:30.347Z,2.93
2023-03-08T17:45:58.618Z,2.93
2023-03-08T17:48:25.117Z,2.89
2023-03-08T17:50:52.147Z,2.92
2023-03-08T17:53:19.228Z,2.95
2023-03-08T17:55:45.996Z,2.92
2023-03-08T17:58:12.591Z,2.95
2023-03-08T18:00:39.251Z,2.97
2023-03-08T18:03:05.618Z,3.02
2023-03-08T18:05:32.110Z,2.94
2023-03-08T18:07:58.588Z,2.88
2023-03-08T18:10:25.060Z,2.88
2023-03-08T18:12:51.634Z,2.87
2023-03-08T18:15:17.992Z,2.86
2023-03-08T18:17:44.344Z,2.86
2023-03-08T18:20:11.287Z,2.86
2023-03-08T18:22:40.491Z,2.89
2023-03-08T18:25:07.050Z,2.92
2023-03-08T18:27:33.436Z,2.91
2023-03-08T18:30:00.000Z,2.92
2023-03-08T18:32:27.993Z,2.97
2023-03-08T18:34:54.416Z,2.98
2023-03-08T18:37:21.082Z,2.97
2023-03-08T18:39:52.791Z,3.05
2023-03-08T18:42:19.259Z,3.02
2023-03-08T18:44:45.670Z,3.02
2023-03-08T18:47:12.175Z,2.99
2023-03-08T18:49:38.564Z,2.98
2023-03-08T18:52:05.172Z,2.96
2023-03-08T18:54:31.517Z,2.97
2023-03-08T18:56:59.150Z,2.96
2023-03-08T18:59:26.491Z,2.95
2023-03-08T19:01:54.073Z,3.07
2023-03-08T19:04:20.617Z,3.04
2023-03-08T19:06:47.151Z,2.95
2023-03-08T19:09:16.046Z,3.14
2023-03-08T19:11:42.523Z,3.18
2023-03-08T19:14:11.622Z,3.08
2023-03-08T19:16:38.482Z,2.99
2023-03-08T19:19:10.769Z,2.90
2023-03-08T19:21:41.377Z,2.91
2023-03-08T19:24:08.298Z,2.92
2023-03-08T19:26:37.355Z,2.90
2023-03-08T19:29:23.434Z,2.85
2023-03-08T19:31:57.006Z,2.78
2023-03-08T19:34:29.127Z,2.81
2023-03-08T19:36:57.717Z,2.76
2023-03-08T19:39:27.127Z,2.81
2023-03-08T19:42:02.460Z,2.77
2023-03-08T19:44:30.071Z,2.76
2023-03-08T19:46:56.884Z,2.77
2023-03-08T19:49:26.814Z,2.78
2023-03-08T19:51:55.098Z,2.78
2023-03-08T19:54:23.248Z,2.77
2023-03-08T19:56:50.130Z,2.81
2023-03-08T19:59:16.794Z,2.81
2023-03-08T20:01:43.793Z,2.82
2023-03-08T20:04:11.014Z,2.81
2023-03-08T20:06:41.272Z,2.80
2023-03-08T20:09:09.907Z,2.78
2023-03-08T20:11:36.742Z,2.78
2023-03-08T20:14:03.467Z,2.79
2023-03-08T20:16:31.089Z,2.79
2023-03-08T20:18:57.732Z,2.78
2023-03-08T20:21:27.341Z,2.73
2023-03-08T20:23:57.703Z,2.75
2023-03-08T20:26:26.193Z,2.79
2023-03-08T20:28:52.795Z,2.79
2023-03-08T20:31:19.728Z,2.80
2023-03-08T20:33:46.332Z,2.79
2023-03-08T20:36:12.915Z,2.76
2023-03-08T20:38:39.712Z,2.79
2023-03-08T20:41:18.659Z,2.77
2023-03-08T20:43:46.965Z,2.77
2023-03-08T20:46:15.321Z,2.80
2023-03-08T20:48:43.800Z,2.78
2023-03-08T20:51:13.238Z,2.73
2023-03-08T20:53:39.791Z,2.74
2023-03-08T20:56:08.003Z,2.74
2023-03-08T20:58:34.441Z,2.73
2023-03-08T21:01:01.086Z,2.75
2023-03-08T21:03:27.628Z,2.77
2023-03-08T21:05:54.010Z,2.73
2023-03-08T21:08:24.145Z,2.74
2023-03-08T21:10:50.629Z,2.74
2023-03-08T21:13:16.992Z,2.75
2023-03-08T21:15:43.390Z,2.87
2023-03-08T21:18:09.772Z,2.92
2023-03-08T21:20:37.856Z,2.87
2023-03-08T21:23:04.283Z,2.85
2023-03-08T21:25:33.724Z,2.82
2023-03-08T21:28:00.093Z,2.82
2023-03-08T21:30:28.280Z,2.86
2023-03-08T21:32:55.096Z,2.80
2023-03-08T21:35:22.809Z,2.81
2023-03-08T21:37:49.220Z,2.81
2023-03-08T21:40:15.704Z,2.83
2023-03-08T21:42:42.081Z,2.81
2023-03-08T21:45:09.073Z,2.82
2023-03-08T21:47:35.402Z,2.80
2023-03-08T21:50:01.763Z,2.82
2023-03-08T21:52:28.123Z,2.78
2023-03-08T21:54:54.524Z,2.83
2023-03-08T21:57:20.882Z,2.79
2023-03-08T21:59:47.308Z,2.80
2023-03-08T22:02:13.669Z,2.80
2023-03-08T22:04:40.172Z,2.80
2023-03-08T22:07:06.561Z,2.81
2023-03-08T22:09:32.948Z,2.81
2023-03-08T22:11:59.490Z,2.78
2023-03-08T22:14:26.871Z,2.77
2023-03-08T22:16:55.281Z,2.78
2023-03-08T22:19:21.765Z,2.75
2023-03-08T22:21:48.122Z,2.77
2023-03-08T22:24:14.511Z,2.74
2023-03-08T22:26:41.062Z,2.72
2023-03-08T22:29:07.591Z,2.74
2023-03-08T22:31:33.963Z,2.73
2023-03-08T22:34:01.424Z,2.77
2023-03-08T22:36:28.199Z,2.78
2023-03-08T22:38:54.589Z,2.76
2023-03-08T22:41:26.514Z,2.78
2023-03-08T22:43:53.236Z,2.72
2023-03-08T22:46:22.786Z,2.74
2023-03-08T22:48:50.091Z,2.74
2023-03-08T22:51:19.693Z,2.78
2023-03-08T22:53:46.065Z,2.78
2023-03-08T22:56:25.819Z,2.85
2023-03-08T22:58:52.511Z,2.82
2023-03-08T23:01:21.886Z,2.83
2023-03-08T23:03:49.682Z,2.82
2023-03-08T23:06:17.893Z,2.85
2023-03-08T23:08:44.798Z,2.84
2023-03-08T23:11:12.111Z,2.80
2023-03-08T23:13:38.583Z,2.79
2023-03-08T23:16:07.404Z,2.79
2023-03-08T23:18:35.050Z,2.79
2023-03-08T23:21:04.138Z,2.76
2023-03-08T23:23:30.757Z,2.76
2023-03-08T23:25:57.774Z,2.75
2023-03-08T23:28:24.491Z,2.73
2023-03-08T23:30:50.862Z,2.73
2023-03-08T23:33:17.270Z,2.77
2023-03-08T23:35:48.254Z,2.78
2023-03-08T23:38:14.722Z,2.84
2023-03-08T23:40:41.176Z,2.79
2023-03-08T23:43:07.567Z,2.82
2023-03-08T23:45:33.976Z,2.80
2023-03-08T23:48:03.085Z,2.80
2023-03-08T23:50:29.666Z,2.78
2023-03-08T23:52:56.042Z,2.82
2023-03-08T23:55:22.416Z,2.77
2023-03-08T23:57:48.771Z,2.81
